Time;durP1;ratioP1;P1;durP2;ratioP2;P2;SDS_P1;SDS_P2;PMS_P1;PMS_P2;Temp;Humidity;BMP_temperature;BMP_pressure;BME280_temperature;BME280_humidity;BME280_pressure;Samples;Min_cycle;Max_cycle;Signal;HPM_P1;HPM_P2
2023/01/16 00:00:54;;;;;;;;;0.00;0.00;;;;;;;;5083323;28;62916;-86
2023/01/16 00:03:19;;;;;;;;;1.75;0.75;;;;;;;;5065394;28;61804;-86
2023/01/16 00:05:45;;;;;;;;;1.25;0.00;;;;;;;;5083347;28;62116;-86
2023/01/16 00:08:10;;;;;;;;;1.00;0.00;;;;;;;;5065809;28;61954;-85
2023/01/16 00:10:36;;;;;;;;;0.00;0.00;;;;;;;;5064999;28;63778;-86
2023/01/16 00:13:01;;;;;;;;;0.00;0.00;;;;;;;;5065907;28;61985;-85
2023/01/16 00:15:26;;;;;;;;;0.00;0.00;;;;;;;;5065609;28;61991;-85
2023/01/16 00:17:52;;;;;;;;;2.00;0.00;;;;;;;;5066043;28;62096;-85
2023/01/16 00:20:17;;;;;;;;;0.00;0.00;;;;;;;;5082906;28;62872;-85
2023/01/16 00:22:43;;;;;;;;;2.75;1.00;;;;;;;;5083377;28;61995;-86
2023/01/16 00:25:08;;;;;;;;;0.00;0.00;;;;;;;;5083493;28;61927;-86
2023/01/16 00:27:33;;;;;;;;;1.00;1.00;;;;;;;;5065816;28;62155;-85
2023/01/16 00:29:59;;;;;;;;;0.00;0.00;;;;;;;;5083053;28;61722;-85
2023/01/16 00:32:24;;;;;;;;;1.00;1.00;;;;;;;;5065473;28;62034;-85
2023/01/16 00:34:49;;;;;;;;;0.00;0.00;;;;;;;;5083725;28;62016;-85
2023/01/16 00:37:14;;;;;;;;;3.00;0.00;;;;;;;;5065383;28;61869;-85
2023/01/16 00:39:40;;;;;;;;;1.25;0.00;;;;;;;;5064713;28;63629;-86
2023/01/16 00:42:05;;;;;;;;;0.00;0.00;;;;;;;;5064930;28;61935;-86
2023/01/16 00:44:30;;;;;;;;;0.00;0.00;;;;;;;;5083697;28;61600;-86
2023/01/16 00:46:56;;;;;;;;;1.00;1.00;;;;;;;;5065520;28;61676;-86
2023/01/16 00:49:21;;;;;;;;;0.00;0.00;;;;;;;;5064262;28;63771;-86
2023/01/16 00:51:46;;;;;;;;;0.00;0.00;;;;;;;;5083317;28;61675;-86
2023/01/16 00:54:12;;;;;;;;;6.50;0.25;;;;;;;;5064978;28;61971;-85
2023/01/16 00:56:37;;;;;;;;;0.25;0.00;;;;;;;;5065391;28;61878;-85
2023/01/16 00:59:02;;;;;;;;;0.00;0.00;;;;;;;;5082568;28;61774;-86
2023/01/16 01:01:27;;;;;;;;;0.25;0.00;;;;;;;;5082903;28;61932;-86
2023/01/16 01:03:53;;;;;;;;;0.00;0.00;;;;;;;;5065039;28;61708;-86
2023/01/16 01:06:18;;;;;;;;;0.00;0.00;;;;;;;;5065208;28;61883;-85
2023/01/16 01:08:43;;;;;;;;;1.25;0.25;;;;;;;;5064131;28;65006;-85
2023/01/16 01:11:10;;;;;;;;;6.00;0.25;;;;;;;;5083248;28;62080;-88
2023/01/16 01:13:36;;;;;;;;;3.00;1.75;;;;;;;;5082976;28;61885;-86
2023/01/16 01:16:01;;;;;;;;;0.00;0.00;;;;;;;;5083243;28;62152;-86
2023/01/16 01:18:26;;;;;;;;;1.00;0.00;;;;;;;;5064376;28;62959;-86
2023/01/16 01:20:52;;;;;;;;;0.25;0.25;;;;;;;;5082365;28;61919;-86
2023/01/16 01:23:17;;;;;;;;;2.50;0.00;;;;;;;;5082989;28;61946;-86
2023/01/16 01:25:42;;;;;;;;;3.00;0.00;;;;;;;;5064970;28;62148;-86
2023/01/16 01:28:08;;;;;;;;;0.50;0.00;;;;;;;;5063906;28;63736;-86
2023/01/16 01:30:33;;;;;;;;;0.00;0.00;;;;;;;;5064709;28;61908;-87
2023/01/16 01:32:58;;;;;;;;;0.00;0.00;;;;;;;;5082701;28;61795;-86
2023/01/16 01:35:23;;;;;;;;;1.25;0.00;;;;;;;;5083244;28;61802;-87
2023/01/16 01:37:49;;;;;;;;;0.00;0.00;;;;;;;;5063683;28;64899;-86
2023/01/16 01:40:14;;;;;;;;;0.00;0.00;;;;;;;;5082839;28;62003;-86
2023/01/16 01:42:43;;;;;;;;;0.00;0.00;;;;;;;;5064398;28;61941;-86
2023/01/16 01:45:17;;;;;;;;;0.25;0.25;;;;;;;;5065092;28;61717;-86
2023/01/16 01:48:12;;;;;;;;;1.00;0.00;;;;;;;;5082162;28;61679;-87
2023/01/16 01:50:54;;;;;;;;;0.00;0.00;;;;;;;;5054876;28;62008;-87
2023/01/16 01:53:25;;;;;;;;;0.00;0.00;;;;;;;;5064307;28;61964;-87
2023/01/16 01:55:51;;;;;;;;;0.00;0.00;;;;;;;;5064332;28;61743;-86
2023/01/16 01:58:21;;;;;;;;;0.00;0.00;;;;;;;;5064008;28;63760;-88
2023/01/16 02:00:48;;;;;;;;;1.50;0.00;;;;;;;;5082358;28;61772;-87
2023/01/16 02:03:17;;;;;;;;;0.75;0.00;;;;;;;;5064388;28;61654;-87
2023/01/16 02:05:48;;;;;;;;;1.50;0.00;;;;;;;;5064761;28;61922;-86
2023/01/16 02:08:18;;;;;;;;;0.25;0.00;;;;;;;;5067490;28;63958;-87
2023/01/16 02:10:53;;;;;;;;;0.00;0.00;;;;;;;;5082111;28;62145;-86
2023/01/16 02:13:18;;;;;;;;;0.00;0.00;;;;;;;;5064142;28;61768;-86
2023/01/16 02:21:24;;;;;;;;;0.00;0.00;;;;;;;;5082009;28;61723;-85
2023/01/16 02:24:08;;;;;;;;;0.75;0.00;;;;;;;;5063698;28;62005;-84
2023/01/16 02:26:48;;;;;;;;;0.75;0.00;;;;;;;;5081998;28;61850;-85
2023/01/16 02:29:32;;;;;;;;;0.50;0.00;;;;;;;;5081575;28;63022;-85
2023/01/16 02:31:57;;;;;;;;;0.00;0.00;;;;;;;;5063826;28;61936;-84
2023/01/16 02:34:22;;;;;;;;;5.25;0.00;;;;;;;;5081999;28;61811;-85
2023/01/16 02:37:06;;;;;;;;;1.00;0.00;;;;;;;;5082413;28;61783;-85
2023/01/16 02:39:38;;;;;;;;;1.00;0.00;;;;;;;;5080825;28;62652;-85
2023/01/16 02:42:06;;;;;;;;;0.00;0.00;;;;;;;;5063137;28;61965;-85
2023/01/16 02:44:43;;;;;;;;;0.00;0.00;;;;;;;;5082052;28;61846;-85
2023/01/16 02:47:14;;;;;;;;;0.75;0.00;;;;;;;;5081930;28;62095;-85
2023/01/16 02:49:42;;;;;;;;;0.00;0.00;;;;;;;;5066187;28;64660;-85
2023/01/16 02:52:13;;;;;;;;;0.00;0.00;;;;;;;;5066722;28;62097;-85
2023/01/16 02:54:45;;;;;;;;;0.50;0.00;;;;;;;;5066955;28;62517;-85
2023/01/16 02:57:16;;;;;;;;;0.25;0.00;;;;;;;;5085413;28;61711;-85
2023/01/16 02:59:41;;;;;;;;;0.00;0.00;;;;;;;;5066472;28;63652;-85
2023/01/16 03:02:08;;;;;;;;;0.00;0.00;;;;;;;;5084906;28;62036;-84
2023/01/16 03:04:36;;;;;;;;;1.00;1.00;;;;;;;;5066998;28;61949;-84
2023/01/16 03:07:17;;;;;;;;;0.00;0.00;;;;;;;;5067085;28;62091;-85
2023/01/16 03:10:01;;;;;;;;;0.00;0.00;;;;;;;;5065696;28;63813;-84
2023/01/16 03:12:45;;;;;;;;;0.00;0.00;;;;;;;;5084928;28;61662;-84
2023/01/16 03:15:13;;;;;;;;;0.00;0.00;;;;;;;;5085135;28;61742;-84
2023/01/16 03:17:44;;;;;;;;;1.00;0.00;;;;;;;;5085206;28;62041;-84
2023/01/16 03:20:12;;;;;;;;;0.00;0.00;;;;;;;;5084090;28;61818;-84
2023/01/16 03:22:37;;;;;;;;;0.00;0.00;;;;;;;;5084163;28;61755;-84
2023/01/16 03:25:03;;;;;;;;;0.00;0.00;;;;;;;;5066851;28;62004;-85
2023/01/16 03:27:34;;;;;;;;;0.00;0.00;;;;;;;;5085150;28;61774;-85
2023/01/16 03:30:07;;;;;;;;;0.00;0.00;;;;;;;;5065883;28;63741;-85
2023/01/16 03:32:40;;;;;;;;;1.00;0.00;;;;;;;;5066347;28;61820;-85
2023/01/16 03:35:13;;;;;;;;;0.00;0.00;;;;;;;;5084844;28;61717;-85
2023/01/16 03:37:41;;;;;;;;;0.00;0.00;;;;;;;;5066060;28;61858;-85
2023/01/16 03:40:09;;;;;;;;;0.00;0.00;;;;;;;;5065839;28;63772;-84
2023/01/16 03:42:37;;;;;;;;;0.00;0.00;;;;;;;;5083998;28;61940;-84
2023/01/16 03:45:11;;;;;;;;;0.00;0.00;;;;;;;;5084771;28;61810;-84
2023/01/16 03:47:40;;;;;;;;;0.00;0.00;;;;;;;;5066622;28;61812;-84
2023/01/16 03:50:07;;;;;;;;;0.25;0.00;;;;;;;;5083575;28;61826;-84
2023/01/16 03:52:40;;;;;;;;;0.00;0.00;;;;;;;;5065113;28;61931;-85
2023/01/16 03:55:16;;;;;;;;;0.00;0.00;;;;;;;;5084633;28;61833;-84
2023/01/16 03:57:46;;;;;;;;;0.50;0.00;;;;;;;;5066323;28;61827;-85
2023/01/16 04:00:12;;;;;;;;;0.00;0.00;;;;;;;;5064255;28;64913;-84
2023/01/16 04:02:44;;;;;;;;;0.00;0.00;;;;;;;;5065716;28;61934;-84
2023/01/16 04:05:21;;;;;;;;;0.00;0.00;;;;;;;;5084348;28;61844;-84
2023/01/16 04:07:59;;;;;;;;;0.00;0.00;;;;;;;;5070317;28;62143;-83
2023/01/16 04:10:26;;;;;;;;;0.50;0.00;;;;;;;;5083469;28;61931;-84
2023/01/16 04:12:54;;;;;;;;;0.00;0.00;;;;;;;;5065833;28;61977;-83
2023/01/16 04:15:21;;;;;;;;;0.00;0.00;;;;;;;;5084103;28;61826;-84
2023/01/16 04:17:46;;;;;;;;;0.00;0.00;;;;;;;;5065989;28;62102;-84
2023/01/16 04:20:12;;;;;;;;;0.00;0.00;;;;;;;;5083220;28;62689;-84
2023/01/16 04:22:37;;;;;;;;;0.00;0.00;;;;;;;;5064708;28;61891;-84
2023/01/16 04:25:08;;;;;;;;;0.25;0.00;;;;;;;;5083939;28;62374;-83
2023/01/16 04:27:33;;;;;;;;;0.00;0.00;;;;;;;;5065670;28;61704;-84
2023/01/16 04:29:58;;;;;;;;;1.00;0.00;;;;;;;;5083502;28;61939;-84
2023/01/16 04:32:24;;;;;;;;;0.50;0.00;;;;;;;;5083582;28;62092;-85
2023/01/16 04:34:49;;;;;;;;;0.00;0.00;;;;;;;;5083497;28;61848;-85
2023/01/16 04:37:15;;;;;;;;;0.50;0.00;;;;;;;;5065684;28;62245;-86
2023/01/16 04:39:41;;;;;;;;;0.00;0.00;;;;;;;;5064911;28;63401;-86
2023/01/16 04:42:09;;;;;;;;;0.00;0.00;;;;;;;;5083156;28;61842;-85
2023/01/16 04:44:34;;;;;;;;;0.00;0.00;;;;;;;;5083783;28;61625;-83
2023/01/16 04:47:00;;;;;;;;;0.75;0.00;;;;;;;;5065747;28;61687;-86
2023/01/16 04:49:25;;;;;;;;;0.00;0.00;;;;;;;;5082161;28;61912;-86
2023/01/16 04:51:51;;;;;;;;;0.00;0.00;;;;;;;;5083737;28;61765;-85
2023/01/16 04:54:17;;;;;;;;;0.00;0.00;;;;;;;;5064888;28;61943;-85
2023/01/16 04:56:43;;;;;;;;;0.00;0.00;;;;;;;;5083867;28;61989;-86
2023/01/16 04:59:08;;;;;;;;;0.00;0.00;;;;;;;;5082989;28;62732;-87
2023/01/16 05:01:36;;;;;;;;;0.00;0.00;;;;;;;;5083136;28;62064;-84
2023/01/16 05:04:02;;;;;;;;;1.00;0.00;;;;;;;;5083063;28;61751;-87
2023/01/16 05:06:27;;;;;;;;;0.75;0.00;;;;;;;;5065117;28;61833;-86
2023/01/16 05:08:52;;;;;;;;;0.00;0.00;;;;;;;;5082162;28;61722;-87
2023/01/16 05:11:17;;;;;;;;;0.00;0.00;;;;;;;;5083057;28;61895;-86
2023/01/16 05:13:43;;;;;;;;;0.00;0.00;;;;;;;;5083275;28;61794;-85
2023/01/16 05:16:08;;;;;;;;;1.00;0.00;;;;;;;;5065271;28;62155;-77
2023/01/16 05:18:33;;;;;;;;;0.00;0.00;;;;;;;;5082139;28;62740;-79
2023/01/16 05:21:00;;;;;;;;;0.00;0.00;;;;;;;;5080558;27;62033;-74
2023/01/16 05:23:25;;;;;;;;;2.75;0.00;;;;;;;;5075142;27;61905;-72
2023/01/16 05:25:50;;;;;;;;;0.00;0.00;;;;;;;;5070795;28;62061;-73
2023/01/16 05:28:16;;;;;;;;;0.00;0.00;;;;;;;;5071991;28;61810;-77
2023/01/16 05:30:41;;;;;;;;;0.00;0.00;;;;;;;;5053179;28;62170;-77
2023/01/16 05:33:06;;;;;;;;;1.00;0.00;;;;;;;;5072478;28;61889;-76
2023/01/16 05:35:32;;;;;;;;;0.00;0.00;;;;;;;;5071710;28;62017;-77
2023/01/16 05:37:57;;;;;;;;;1.00;0.00;;;;;;;;5070728;28;62729;-76
2023/01/16 05:40:22;;;;;;;;;0.00;0.00;;;;;;;;5072421;28;61771;-77
2023/01/16 05:42:47;;;;;;;;;0.00;0.00;;;;;;;;5070708;28;61741;-76
2023/01/16 05:45:13;;;;;;;;;0.00;0.00;;;;;;;;5062829;28;62126;-76
2023/01/16 05:47:39;;;;;;;;;0.00;0.00;;;;;;;;5062593;28;61958;-76
2023/01/16 05:50:04;;;;;;;;;0.00;0.00;;;;;;;;5081778;28;62061;-76
2023/01/16 05:52:29;;;;;;;;;0.75;0.00;;;;;;;;5082112;28;61738;-76
2023/01/16 05:54:55;;;;;;;;;0.00;0.00;;;;;;;;5064813;28;61779;-75
2023/01/16 05:57:22;;;;;;;;;0.00;0.00;;;;;;;;5082025;28;61720;-76
2023/01/16 05:59:48;;;;;;;;;0.25;0.00;;;;;;;;5081332;28;61929;-76
2023/01/16 06:02:13;;;;;;;;;0.00;0.00;;;;;;;;5063888;28;61943;-76
2023/01/16 06:04:38;;;;;;;;;0.50;0.00;;;;;;;;5064483;28;61946;-77
2023/01/16 06:07:03;;;;;;;;;0.00;0.00;;;;;;;;5073178;28;61681;-77
2023/01/16 06:09:29;;;;;;;;;0.75;0.00;;;;;;;;5063900;28;61942;-77
2023/01/16 06:11:54;;;;;;;;;0.00;0.00;;;;;;;;5064379;28;61948;-77
2023/01/16 06:14:19;;;;;;;;;1.25;0.00;;;;;;;;5064613;28;62097;-75
2023/01/16 06:16:44;;;;;;;;;0.00;0.00;;;;;;;;5082287;28;61734;-76
2023/01/16 06:19:10;;;;;;;;;1.50;0.00;;;;;;;;5072223;28;61883;-77
2023/01/16 06:21:35;;;;;;;;;0.50;0.00;;;;;;;;5064539;28;61883;-75
2023/01/16 06:24:00;;;;;;;;;1.00;0.00;;;;;;;;5084781;28;61636;-77
2023/01/16 06:26:26;;;;;;;;;0.00;0.00;;;;;;;;5077158;28;62684;-78
2023/01/16 06:28:51;;;;;;;;;0.00;0.00;;;;;;;;5065369;28;61689;-77
2023/01/16 06:31:16;;;;;;;;;0.00;0.00;;;;;;;;5071627;28;61738;-82
2023/01/16 06:33:42;;;;;;;;;0.00;0.00;;;;;;;;5067137;28;62254;-78
2023/01/16 06:36:07;;;;;;;;;0.00;0.00;;;;;;;;5066719;28;64655;-79
2023/01/16 06:38:33;;;;;;;;;1.00;0.00;;;;;;;;5085927;28;61822;-79
2023/01/16 06:40:58;;;;;;;;;1.00;0.00;;;;;;;;5084465;28;61992;-79
2023/01/16 06:43:24;;;;;;;;;1.50;0.00;;;;;;;;5083502;28;61931;-79
2023/01/16 06:45:49;;;;;;;;;0.50;0.00;;;;;;;;5065638;28;61863;-79
2023/01/16 06:48:14;;;;;;;;;0.00;0.00;;;;;;;;5085316;28;61855;-79
2023/01/16 06:50:40;;;;;;;;;0.00;0.00;;;;;;;;5084871;28;61771;-82
2023/01/16 06:53:05;;;;;;;;;2.00;1.00;;;;;;;;5082975;28;61993;-79
2023/01/16 06:55:30;;;;;;;;;0.00;0.00;;;;;;;;5065423;28;62075;-79
2023/01/16 06:57:55;;;;;;;;;0.75;0.00;;;;;;;;5084458;28;61880;-79
2023/01/16 07:00:21;;;;;;;;;0.00;0.00;;;;;;;;5084328;28;62132;-79
2023/01/16 07:02:55;;;;;;;;;0.00;0.00;;;;;;;;5084117;28;62135;-79
2023/01/16 07:05:21;;;;;;;;;1.50;1.50;;;;;;;;5062826;28;63824;-78
2023/01/16 07:07:47;;;;;;;;;0.00;0.00;;;;;;;;5083090;28;62155;-79
2023/01/16 07:10:12;;;;;;;;;0.00;0.00;;;;;;;;5084495;28;61669;-79
2023/01/16 07:12:37;;;;;;;;;0.00;0.00;;;;;;;;5066374;28;61945;-78
2023/01/16 07:23:20;;;;;;;;;0.00;0.00;;;;;;;;5084338;28;61928;-79
2023/01/16 07:25:46;;;;;;;;;0.00;0.00;;;;;;;;5065444;28;61765;-79
2023/01/16 07:28:12;;;;;;;;;0.00;0.00;;;;;;;;5084820;28;61866;-79
2023/01/16 07:30:37;;;;;;;;;1.00;0.00;;;;;;;;5066002;28;62106;-78
2023/01/16 07:33:02;;;;;;;;;0.00;0.00;;;;;;;;5082972;28;62013;-79
2023/01/16 07:35:27;;;;;;;;;1.00;0.00;;;;;;;;5065685;28;63431;-79
2023/01/16 07:37:56;;;;;;;;;0.00;0.00;;;;;;;;5084130;28;62080;-79
2023/01/16 07:40:21;;;;;;;;;0.50;0.00;;;;;;;;5083664;28;61808;-84
2023/01/16 07:42:48;;;;;;;;;1.25;0.50;;;;;;;;5083755;28;61806;-86
2023/01/16 07:45:14;;;;;;;;;0.00;0.00;;;;;;;;5083681;28;62763;-86
2023/01/16 07:47:39;;;;;;;;;1.00;0.00;;;;;;;;5065808;28;61927;-86
2023/01/16 07:50:05;;;;;;;;;0.00;0.00;;;;;;;;5065520;28;62018;-86
2023/01/16 07:52:30;;;;;;;;;0.00;0.00;;;;;;;;5065709;28;62269;-85
2023/01/16 07:54:55;;;;;;;;;1.00;0.00;;;;;;;;5083219;28;63036;-86
2023/01/16 07:57:20;;;;;;;;;2.00;0.00;;;;;;;;5082564;28;61913;-85
2023/01/16 07:59:46;;;;;;;;;0.25;0.00;;;;;;;;5083179;28;61826;-86
2023/01/16 08:02:11;;;;;;;;;0.50;0.00;;;;;;;;5084443;28;62182;-86
2023/01/16 08:04:36;;;;;;;;;0.00;0.00;;;;;;;;5083881;28;61664;-86
2023/01/16 08:07:02;;;;;;;;;0.00;0.00;;;;;;;;5065396;28;61802;-84
2023/01/16 08:09:27;;;;;;;;;1.00;0.00;;;;;;;;5065231;28;62002;-86
2023/01/16 08:11:52;;;;;;;;;0.00;0.00;;;;;;;;5065567;28;62131;-86
2023/01/16 08:14:17;;;;;;;;;0.00;0.00;;;;;;;;5083292;28;62789;-86
2023/01/16 08:16:43;;;;;;;;;0.00;0.00;;;;;;;;5084062;28;61730;-86
2023/01/16 08:19:08;;;;;;;;;0.00;0.00;;;;;;;;5061577;28;62306;-85
2023/01/16 08:21:33;;;;;;;;;0.00;0.00;;;;;;;;5077136;28;61820;-86
2023/01/16 08:23:59;;;;;;;;;0.00;0.00;;;;;;;;5063674;28;62217;-86
2023/01/16 08:26:24;;;;;;;;;0.00;0.00;;;;;;;;5056079;28;62134;-85
2023/01/16 08:28:49;;;;;;;;;0.00;0.00;;;;;;;;5058052;28;62002;-86
2023/01/16 08:31:17;;;;;;;;;0.00;0.00;;;;;;;;5053676;28;62160;-85
2023/01/16 08:33:43;;;;;;;;;0.00;0.00;;;;;;;;5055826;28;64120;-85
2023/01/16 08:36:10;;;;;;;;;3.00;0.00;;;;;;;;5056472;28;61944;-85
2023/01/16 08:38:35;;;;;;;;;0.25;0.00;;;;;;;;5079441;28;61974;-85
2023/01/16 08:41:00;;;;;;;;;0.00;0.00;;;;;;;;5076401;28;61985;-85
2023/01/16 08:51:44;;;;;;;;;0.00;0.00;;;;;;;;5082353;28;61983;-84
2023/01/16 08:54:09;;;;;;;;;0.00;0.00;;;;;;;;5080864;28;63074;-86
2023/01/16 08:56:36;;;;;;;;;0.00;0.00;;;;;;;;5081918;28;62151;-86
2023/01/16 08:59:02;;;;;;;;;0.00;0.00;;;;;;;;5082135;28;61885;-85
2023/01/16 09:01:27;;;;;;;;;0.00;0.00;;;;;;;;5063737;28;61836;-85
2023/01/16 09:03:52;;;;;;;;;0.00;0.00;;;;;;;;5081770;28;61903;-86
2023/01/16 09:06:18;;;;;;;;;0.00;0.00;;;;;;;;5081834;28;61743;-85
2023/01/16 09:08:43;;;;;;;;;0.00;0.00;;;;;;;;5081243;28;61735;-85
2023/01/16 09:13:52;;;;;;;;;0.00;0.00;;;;;;;;5081399;28;62019;-85
2023/01/16 09:16:22;;;;;;;;;0.00;0.00;;;;;;;;5063446;28;61911;-86
2023/01/16 09:18:47;;;;;;;;;0.00;0.00;;;;;;;;5081604;28;62063;-85
2023/01/16 09:21:13;;;;;;;;;1.00;0.00;;;;;;;;5081725;28;62091;-85
2023/01/16 09:23:38;;;;;;;;;1.00;0.00;;;;;;;;5080685;28;61929;-85
2023/01/16 09:26:04;;;;;;;;;0.00;0.00;;;;;;;;5081178;28;61977;-85
2023/01/16 09:28:29;;;;;;;;;0.00;0.00;;;;;;;;5063542;28;61864;-85
2023/01/16 09:30:54;;;;;;;;;0.50;0.50;;;;;;;;5063300;28;61827;-85
2023/01/16 09:33:19;;;;;;;;;0.00;0.00;;;;;;;;5080484;28;62004;-85
2023/01/16 09:35:45;;;;;;;;;2.25;0.00;;;;;;;;5063079;28;61895;-85
2023/01/16 09:38:10;;;;;;;;;0.00;0.00;;;;;;;;5081338;28;61935;-85
2023/01/16 09:40:36;;;;;;;;;0.00;0.00;;;;;;;;5036313;28;1283989;-85
2023/01/16 09:43:35;;;;;;;;;0.00;0.00;;;;;;;;5082022;28;61783;-84
2023/01/16 09:46:16;;;;;;;;;0.00;0.00;;;;;;;;5064587;28;61860;-84
2023/01/16 09:49:07;;;;;;;;;0.00;0.00;;;;;;;;5082668;28;61732;-84
2023/01/16 09:51:35;;;;;;;;;0.00;0.00;;;;;;;;5033876;28;62200;-85
2023/01/16 09:59:38;;;;;;;;;0.00;0.00;;;;;;;;5082721;28;61844;-85
2023/01/16 10:02:06;;;;;;;;;0.00;0.00;;;;;;;;5082949;28;61943;-84
2023/01/16 10:04:31;;;;;;;;;2.00;1.00;;;;;;;;5063803;28;63867;-84
2023/01/16 10:07:09;;;;;;;;;0.00;0.00;;;;;;;;5082330;28;62359;-84
2023/01/16 10:09:46;;;;;;;;;1.00;1.00;;;;;;;;5082059;28;61993;-85
2023/01/16 10:12:12;;;;;;;;;4.00;1.00;;;;;;;;5082525;28;61864;-85
2023/01/16 10:14:40;;;;;;;;;0.00;0.00;;;;;;;;5082051;28;61739;-85
2023/01/16 10:17:14;;;;;;;;;0.00;0.00;;;;;;;;5082638;28;61933;-85
2023/01/16 10:19:52;;;;;;;;;0.75;0.75;;;;;;;;5081827;28;61853;-85
2023/01/16 10:22:17;;;;;;;;;2.00;0.50;;;;;;;;5064075;28;61860;-85
2023/01/16 10:24:42;;;;;;;;;1.75;1.00;;;;;;;;5063070;28;62896;-85
2023/01/16 10:27:27;;;;;;;;;1.25;1.25;;;;;;;;5063871;28;61814;-86
2023/01/16 10:29:56;;;;;;;;;0.50;0.50;;;;;;;;5082125;28;61879;-85
2023/01/16 10:32:24;;;;;;;;;4.50;0.75;;;;;;;;5063841;28;61670;-85
2023/01/16 10:35:03;;;;;;;;;0.50;0.25;;;;;;;;5063588;28;63843;-86
2023/01/16 10:37:29;;;;;;;;;0.00;0.00;;;;;;;;5063130;28;61756;-85
2023/01/16 10:39:55;;;;;;;;;1.00;0.00;;;;;;;;5063794;28;61730;-86
2023/01/16 10:50:55;;;;;;;;;0.00;0.00;;;;;;;;5081878;28;61865;-86
2023/01/16 10:53:21;;;;;;;;;0.00;0.00;;;;;;;;5081235;28;61743;-85
2023/01/16 10:55:48;;;;;;;;;0.00;0.00;;;;;;;;5081437;28;61987;-86
2023/01/16 10:58:22;;;;;;;;;0.25;0.00;;;;;;;;5063761;28;61927;-86
2023/01/16 11:00:49;;;;;;;;;1.00;0.00;;;;;;;;5082008;28;61743;-86
2023/01/16 11:03:18;;;;;;;;;0.00;0.00;;;;;;;;5063642;28;62256;-86
2023/01/16 11:05:43;;;;;;;;;0.00;0.00;;;;;;;;5063060;28;63886;-86
2023/01/16 11:08:17;;;;;;;;;0.00;0.00;;;;;;;;5062621;28;62006;-86
2023/01/16 11:10:47;;;;;;;;;0.00;0.00;;;;;;;;5085446;28;61922;-86
2023/01/16 11:19:16;;;;;;;;;0.00;0.00;;;;;;;;5084966;28;61820;-87
2023/01/16 11:21:43;;;;;;;;;0.00;0.00;;;;;;;;5084614;28;61820;-87
2023/01/16 11:24:20;;;;;;;;;0.50;0.00;;;;;;;;5085025;28;62072;-87
2023/01/16 11:26:48;;;;;;;;;0.00;0.00;;;;;;;;5084533;28;61772;-88
2023/01/16 11:29:16;;;;;;;;;0.00;0.00;;;;;;;;5066667;28;61942;-87
2023/01/16 11:31:41;;;;;;;;;0.00;0.00;;;;;;;;5084919;28;61893;-88
2023/01/16 11:34:14;;;;;;;;;0.00;0.00;;;;;;;;5085115;28;61821;-88
2023/01/16 11:36:40;;;;;;;;;1.50;0.00;;;;;;;;5084005;28;62003;-87
2023/01/16 11:39:06;;;;;;;;;0.00;0.00;;;;;;;;5084498;28;61838;-88
2023/01/16 11:41:33;;;;;;;;;0.00;0.00;;;;;;;;5084719;28;62827;-87
2023/01/16 11:47:02;;;;;;;;;0.50;0.00;;;;;;;;5084097;28;61763;-87
2023/01/16 11:49:43;;;;;;;;;0.75;0.00;;;;;;;;5084209;28;61777;-88
2023/01/16 11:52:26;;;;;;;;;0.00;0.00;;;;;;;;5084454;28;62117;-87
2023/01/16 11:55:02;;;;;;;;;0.25;0.25;;;;;;;;5066300;28;62120;-87
2023/01/16 11:57:27;;;;;;;;;0.00;0.00;;;;;;;;5083783;28;61714;-88
2023/01/16 12:00:00;;;;;;;;;0.00;0.00;;;;;;;;5084724;28;61985;-88
2023/01/16 12:02:44;;;;;;;;;0.50;0.50;;;;;;;;5084563;28;61793;-88
2023/01/16 12:08:21;;;;;;;;;0.00;0.00;;;;;;;;5083244;28;62311;-88
2023/01/16 12:10:55;;;;;;;;;0.00;0.00;;;;;;;;5084274;28;61828;-88
2023/01/16 12:16:15;;;;;;;;;1.50;0.25;;;;;;;;5084600;28;61851;-89
2023/01/16 12:18:47;;;;;;;;;0.00;0.00;;;;;;;;5065024;28;61802;-87
2023/01/16 12:21:32;;;;;;;;;0.50;0.00;;;;;;;;5064334;28;61705;-88
2023/01/16 12:24:16;;;;;;;;;0.00;0.00;;;;;;;;5051148;28;61731;-85
2023/01/16 12:26:51;;;;;;;;;1.25;0.00;;;;;;;;5065623;28;62041;-88
2023/01/16 12:29:29;;;;;;;;;1.50;1.00;;;;;;;;5065112;28;65080;-88
2023/01/16 12:32:22;;;;;;;;;1.00;0.75;;;;;;;;5083997;28;61959;-88
2023/01/16 12:35:06;;;;;;;;;1.00;1.00;;;;;;;;5034817;28;62095;-88
2023/01/16 12:37:53;;;;;;;;;0.00;0.00;;;;;;;;5065776;28;61599;-88
2023/01/16 12:40:36;;;;;;;;;0.00;0.00;;;;;;;;5082802;28;62030;-88
2023/01/16 12:43:22;;;;;;;;;0.25;0.25;;;;;;;;5065493;28;62018;-88
2023/01/16 12:45:53;;;;;;;;;0.00;0.00;;;;;;;;5083763;28;61704;-88
2023/01/16 12:48:37;;;;;;;;;0.50;0.50;;;;;;;;5083842;28;61906;-88
2023/01/16 12:51:21;;;;;;;;;3.50;2.00;;;;;;;;5082696;28;61850;-88
2023/01/16 12:54:05;;;;;;;;;3.50;2.50;;;;;;;;5083898;28;61933;-87
2023/01/16 12:56:33;;;;;;;;;4.50;2.50;;;;;;;;5083643;28;61878;-88
2023/01/16 12:59:01;;;;;;;;;2.50;2.50;;;;;;;;5083819;28;61701;-88
2023/01/16 13:01:35;;;;;;;;;6.25;2.75;;;;;;;;5083122;28;61755;-88
2023/01/16 13:04:15;;;;;;;;;2.00;2.00;;;;;;;;5082950;28;61657;-88
2023/01/16 13:06:47;;;;;;;;;0.75;0.50;;;;;;;;5065261;28;61866;-87
2023/01/16 13:09:22;;;;;;;;;2.25;2.25;;;;;;;;5044962;28;61730;-88
2023/01/16 13:15:00;;;;;;;;;5.50;2.00;;;;;;;;5042165;28;61855;-88
2023/01/16 13:17:32;;;;;;;;;1.00;1.00;;;;;;;;5062596;28;61825;-88
2023/01/16 13:20:00;;;;;;;;;0.75;0.00;;;;;;;;5044516;28;61730;-88
2023/01/16 13:22:27;;;;;;;;;6.75;1.00;;;;;;;;5062039;28;61832;-87
2023/01/16 13:24:59;;;;;;;;;1.00;0.00;;;;;;;;5062441;28;61639;-88
2023/01/16 13:27:39;;;;;;;;;1.00;1.00;;;;;;;;5062938;28;61760;-87
2023/01/16 13:30:08;;;;;;;;;4.75;1.75;;;;;;;;5044771;28;61808;-88
2023/01/16 13:32:36;;;;;;;;;3.00;2.50;;;;;;;;5043143;28;64904;-87
2023/01/16 13:35:15;;;;;;;;;1.75;1.00;;;;;;;;5044326;28;61731;-87
2023/01/16 13:37:49;;;;;;;;;0.75;0.75;;;;;;;;5062939;28;62070;-88
2023/01/16 13:40:26;;;;;;;;;2.75;1.00;;;;;;;;5044516;28;62217;-88
2023/01/16 13:45:47;;;;;;;;;1.00;1.00;;;;;;;;5061837;28;62677;-87
2023/01/16 13:45:49;;;;;;;;;1.75;1.75;;;;;;;;5062515;28;61710;-88
2023/01/16 13:48:28;;;;;;;;;1.25;1.25;;;;;;;;5044171;28;61635;-88
2023/01/16 13:50:59;;;;;;;;;5.00;2.00;;;;;;;;5061930;28;61773;-88
2023/01/16 13:53:24;;;;;;;;;1.00;1.00;;;;;;;;5043302;28;61878;-87
2023/01/16 13:55:59;;;;;;;;;10.00;1.00;;;;;;;;5062418;28;61729;-88
2023/01/16 13:58:25;;;;;;;;;1.00;1.00;;;;;;;;5062662;28;61721;-88
2023/01/16 14:00:59;;;;;;;;;2.25;1.75;;;;;;;;5061953;28;61815;-87
2023/01/16 14:03:26;;;;;;;;;1.75;1.00;;;;;;;;5043448;28;63497;-87
2023/01/16 14:05:52;;;;;;;;;1.75;1.00;;;;;;;;5044507;28;61789;-87
2023/01/16 14:11:30;;;;;;;;;1.00;1.00;;;;;;;;5082768;28;62284;-88
2023/01/16 14:14:14;;;;;;;;;0.50;0.50;;;;;;;;5063566;28;63699;-88
2023/01/16 14:16:41;;;;;;;;;1.75;1.00;;;;;;;;5064041;28;61866;-86
2023/01/16 14:19:15;;;;;;;;;1.75;1.75;;;;;;;;5082077;28;61778;-88
2023/01/16 14:24:00;;;;;;;;;0.00;0.00;;;;;;;;5082541;28;61811;-88
2023/01/16 14:24:28;;;;;;;;;0.00;0.00;;;;;;;;5080696;28;61701;-88
2023/01/16 14:26:59;;;;;;;;;1.00;1.00;;;;;;;;5082471;28;61999;-88
2023/01/16 14:29:34;;;;;;;;;5.00;1.00;;;;;;;;5081929;28;61746;-87
2023/01/16 14:32:05;;;;;;;;;1.00;1.00;;;;;;;;5082294;28;61748;-88
2023/01/16 14:34:46;;;;;;;;;0.25;0.25;;;;;;;;5063134;28;64195;-88
2023/01/16 14:37:15;;;;;;;;;2.00;1.25;;;;;;;;5082540;28;61664;-88
2023/01/16 14:39:48;;;;;;;;;3.00;2.00;;;;;;;;5063773;28;61907;-88
2023/01/16 14:56:23;;;;;;;;;1.00;1.00;;;;;;;;5084887;28;61794;-88
2023/01/16 14:58:53;;;;;;;;;0.75;0.75;;;;;;;;5084967;28;61665;-88
2023/01/16 15:04:06;;;;;;;;;1.25;1.25;;;;;;;;5085525;28;61815;-88
2023/01/16 15:11:52;;;;;;;;;3.00;1.00;;;;;;;;4228749;25;61781;-83
2023/01/16 15:14:27;;;;;;;;;1.25;1.00;;;;;;;;5085342;28;62094;-83
2023/01/16 15:22:43;;;;;;;;;5.00;3.00;;;;;;;;5085087;28;61824;-82
2023/01/16 15:25:17;;;;;;;;;5.75;4.00;;;;;;;;5085201;28;62006;-83
2023/01/16 15:27:44;;;;;;;;;4.00;4.00;;;;;;;;5084723;28;61782;-83
2023/01/16 15:30:23;;;;;;;;;2.00;2.00;;;;;;;;5085053;28;61761;-83
2023/01/16 15:32:52;;;;;;;;;2.75;2.75;;;;;;;;5085046;28;61675;-83
2023/01/16 15:35:18;;;;;;;;;3.00;2.75;;;;;;;;5085439;28;61705;-83
2023/01/16 15:37:51;;;;;;;;;7.75;5.25;;;;;;;;5084087;28;62157;-82
2023/01/16 15:40:21;;;;;;;;;4.00;4.00;;;;;;;;5065935;28;61745;-83
2023/01/16 15:48:38;;;;;;;;;5.50;2.50;;;;;;;;5079669;28;62425;-82
2023/01/16 15:51:04;;;;;;;;;3.00;2.50;;;;;;;;5071784;28;61834;-82
2023/01/16 15:53:42;;;;;;;;;2.50;1.50;;;;;;;;5072200;28;62035;-82
2023/01/16 15:56:16;;;;;;;;;4.25;3.75;;;;;;;;5073247;28;62225;-81
2023/01/16 15:58:42;;;;;;;;;4.75;3.00;;;;;;;;5082468;27;61838;-82
2023/01/16 16:01:08;;;;;;;;;6.00;5.00;;;;;;;;5082947;28;61693;-81
2023/01/16 16:03:54;;;;;;;;;2.25;2.00;;;;;;;;5082538;28;61694;-82
2023/01/16 16:06:20;;;;;;;;;4.50;1.00;;;;;;;;5071512;28;62131;-82
2023/01/16 16:08:47;;;;;;;;;3.25;1.00;;;;;;;;5071770;28;65200;-83
2023/01/16 16:17:54;;;;;;;;;3.00;2.50;;;;;;;;5083213;28;61868;-83
2023/01/16 16:19:43;;;;;;;;;4.00;2.25;;;;;;;;5079409;28;61858;-83
2023/01/16 16:24:53;;;;;;;;;1.00;1.00;;;;;;;;5073011;28;62280;-83
2023/01/16 16:27:19;;;;;;;;;3.00;3.00;;;;;;;;5073001;28;61915;-83
2023/01/16 16:29:51;;;;;;;;;4.50;3.00;;;;;;;;5081886;28;62104;-83
2023/01/16 16:32:17;;;;;;;;;5.00;5.00;;;;;;;;5082755;28;62277;-82
2023/01/16 16:34:52;;;;;;;;;4.75;1.00;;;;;;;;5082403;28;61680;-83
2023/01/16 16:37:17;;;;;;;;;1.00;1.00;;;;;;;;5081052;28;62086;-84